createdAt,value
2023-02-17T00:01:26.531Z,87.96
2023-02-17T00:03:53.624Z,87.09
2023-02-17T00:06:27.828Z,88.20
2023-02-17T00:08:55.344Z,88.73
2023-02-17T00:11:22.493Z,88.30
2023-02-17T00:13:49.682Z,87.97
2023-02-17T00:16:22.981Z,88.39
2023-02-17T00:18:56.061Z,87.97
2023-02-17T00:21:25.087Z,88.23
2023-02-17T00:23:53.257Z,88.96
2023-02-17T00:26:23.564Z,89.28
2023-02-17T00:28:50.981Z,90.50
2023-02-17T00:31:21.914Z,90.68
2023-02-17T00:33:49.293Z,91.16
2023-02-17T00:36:20.835Z,90.48
2023-02-17T00:38:49.476Z,91.76
2023-02-17T00:41:19.605Z,92.18
2023-02-17T00:43:47.658Z,92.19
2023-02-17T00:46:15.685Z,92.96
2023-02-17T00:48:42.584Z,92.89
2023-02-17T00:51:10.337Z,91.85
2023-02-17T00:53:37.513Z,91.39
2023-02-17T00:56:05.734Z,91.02
2023-02-17T00:58:32.802Z,90.69
2023-02-17T01:00:59.726Z,91.79
2023-02-17T01:03:27.664Z,92.71
2023-02-17T01:05:56.012Z,93.59
2023-02-17T01:08:23.565Z,94.74
2023-02-17T01:10:51.387Z,94.08
2023-02-17T01:13:19.504Z,93.58
2023-02-17T01:15:50.613Z,92.91
2023-02-17T01:18:20.295Z,92.24
2023-02-17T01:20:47.133Z,92.98
2023-02-17T01:23:14.684Z,93.03
2023-02-17T01:25:44.945Z,93.00
2023-02-17T01:28:17.987Z,93.26
2023-02-17T01:30:44.740Z,93.29
2023-02-17T01:33:11.669Z,93.86
2023-02-17T01:35:38.466Z,94.66
2023-02-17T01:38:05.285Z,93.54
2023-02-17T01:40:32.117Z,93.58
2023-02-17T01:42:58.905Z,93.75
2023-02-17T01:45:35.817Z,93.97
2023-02-17T01:48:15.097Z,94.03
2023-02-17T01:51:02.855Z,94.15
2023-02-17T01:53:44.860Z,95.64
2023-02-17T01:56:13.500Z,95.71
2023-02-17T01:58:46.241Z,95.65
2023-02-17T02:01:13.492Z,95.53
2023-02-17T02:03:40.598Z,96.74
2023-02-17T02:06:17.299Z,96.32
2023-02-17T02:08:57.185Z,96.53
2023-02-17T02:11:23.948Z,96.61
2023-02-17T02:13:51.448Z,97.47
2023-02-17T02:17:38.624Z,96.87
2023-02-17T02:20:41.456Z,95.94
2023-02-17T02:23:46.183Z,96.11
2023-02-17T02:26:43.213Z,97.92
2023-02-17T02:29:49.687Z,96.91
2023-02-17T02:32:44.256Z,96.84
2023-02-17T02:35:22.110Z,96.38
2023-02-17T02:38:16.732Z,95.27
2023-02-17T02:41:14.802Z,96.10
2023-02-17T02:43:42.773Z,96.42
2023-02-17T02:46:10.446Z,96.30
2023-02-17T02:48:38.280Z,96.42
2023-02-17T02:51:12.933Z,95.57
2023-02-17T02:54:18.465Z,95.80
2023-02-17T02:57:24.635Z,96.75
2023-02-17T03:00:16.401Z,96.66
2023-02-17T03:03:05.726Z,96.65
2023-02-17T03:05:39.317Z,96.45
2023-02-17T03:08:32.250Z,96.32
2023-02-17T03:10:58.990Z,95.78
2023-02-17T03:13:25.798Z,95.41
2023-02-17T03:15:52.903Z,94.41
2023-02-17T03:18:20.192Z,93.84
2023-02-17T03:20:57.265Z,94.24
2023-02-17T03:23:24.001Z,94.05
2023-02-17T03:25:50.788Z,94.31
2023-02-17T03:28:18.692Z,93.67
2023-02-17T03:30:45.535Z,93.36
2023-02-17T03:33:12.351Z,93.83
2023-02-17T03:35:39.052Z,93.32
2023-02-17T03:38:05.880Z,93.52
2023-02-17T03:40:32.654Z,94.28
2023-02-17T03:42:59.452Z,94.47
2023-02-17T03:45:26.209Z,94.94
2023-02-17T03:47:53.041Z,97.11
2023-02-17T03:50:19.788Z,97.43
2023-02-17T03:52:46.647Z,97.46
2023-02-17T03:55:13.658Z,96.61
2023-02-17T03:57:40.489Z,97.31
2023-02-17T04:00:08.532Z,97.52
2023-02-17T04:02:35.553Z,97.15
2023-02-17T04:05:02.648Z,97.14
2023-02-17T04:07:29.542Z,98.25
2023-02-17T04:09:56.308Z,98.46
2023-02-17T04:12:23.070Z,97.82
2023-02-17T04:14:49.860Z,97.50
2023-02-17T04:17:16.625Z,97.11
2023-02-17T04:19:43.345Z,97.12
2023-02-17T04:22:10.198Z,97.18
2023-02-17T04:24:37.394Z,97.08
2023-02-17T04:27:05.545Z,96.26
2023-02-17T04:29:33.665Z,96.09
2023-02-17T04:32:00.483Z,96.24
2023-02-17T04:34:27.290Z,95.66
2023-02-17T04:36:54.161Z,95.94
2023-02-17T04:39:21.125Z,97.41
2023-02-17T04:41:47.874Z,97.54
2023-02-17T04:44:14.610Z,96.78
2023-02-17T04:46:41.414Z,96.92
2023-02-17T04:49:08.157Z,96.96
2023-02-17T04:51:34.919Z,96.23
2023-02-17T04:54:01.678Z,95.59
2023-02-17T04:56:28.457Z,95.33
2023-02-17T04:58:55.201Z,96.56
2023-02-17T05:01:22.017Z,100.00
2023-02-17T05:03:48.857Z,100.00
2023-02-17T05:06:15.757Z,99.41
2023-02-17T05:08:42.524Z,98.44
2023-02-17T05:11:09.300Z,98.43
2023-02-17T05:13:36.033Z,98.86
2023-02-17T05:16:02.883Z,98.33
2023-02-17T05:18:29.650Z,98.85
2023-02-17T05:20:56.364Z,98.49
2023-02-17T05:23:23.542Z,97.68
2023-02-17T05:25:50.285Z,96.84
2023-02-17T05:28:17.041Z,96.40
2023-02-17T05:30:43.766Z,96.43
2023-02-17T05:33:10.523Z,96.63
2023-02-17T05:35:37.339Z,96.14
2023-02-17T05:38:04.118Z,95.96
2023-02-17T05:40:30.977Z,95.99
2023-02-17T05:42:57.698Z,96.26
2023-02-17T05:45:24.515Z,96.68
2023-02-17T05:47:51.236Z,97.77
2023-02-17T05:50:18.065Z,96.52
2023-02-17T05:52:44.813Z,97.60
2023-02-17T05:55:11.577Z,97.97
2023-02-17T05:57:38.340Z,97.22
2023-02-17T06:00:06.346Z,97.26
2023-02-17T06:02:33.084Z,96.53
2023-02-17T06:04:59.907Z,96.88
2023-02-17T06:07:26.725Z,97.51
2023-02-17T06:09:53.496Z,98.02
2023-02-17T06:12:20.210Z,97.07
2023-02-17T06:14:46.951Z,96.93
2023-02-17T06:17:13.693Z,96.97
2023-02-17T06:19:40.458Z,96.62
2023-02-17T06:22:07.265Z,97.50
2023-02-17T06:24:33.989Z,97.51
2023-02-17T06:27:01.881Z,97.87
2023-02-17T06:29:28.832Z,97.99
2023-02-17T06:31:55.672Z,99.25
2023-02-17T06:34:22.871Z,99.39
2023-02-17T06:36:49.831Z,99.41
2023-02-17T06:39:16.537Z,99.06
2023-02-17T06:41:43.280Z,99.85
2023-02-17T06:44:10.011Z,100.00
2023-02-17T06:46:36.845Z,100.00
2023-02-17T06:49:03.646Z,100.00
2023-02-17T06:51:30.701Z,99.62
2023-02-17T06:53:57.712Z,99.50
2023-02-17T06:56:24.650Z,99.14
2023-02-17T06:58:51.577Z,99.75
2023-02-17T07:01:21.854Z,99.99
2023-02-17T07:03:48.832Z,100.00
2023-02-17T07:06:15.621Z,100.00
2023-02-17T07:08:42.378Z,100.00
2023-02-17T07:11:12.584Z,100.00
2023-02-17T07:13:41.087Z,100.00
2023-02-17T07:16:09.710Z,100.00
2023-02-17T07:18:37.920Z,100.00
2023-02-17T07:21:07.274Z,100.00
2023-02-17T07:23:33.999Z,100.00
2023-02-17T07:26:06.782Z,100.00
2023-02-17T07:28:33.691Z,100.00
2023-02-17T07:31:08.619Z,100.00
2023-02-17T07:33:36.296Z,100.00
2023-02-17T07:36:12.741Z,100.00
2023-02-17T07:38:40.614Z,100.00
2023-02-17T07:41:14.194Z,100.00
2023-02-17T07:43:41.586Z,100.00
2023-02-17T07:46:10.405Z,100.00
2023-02-17T07:48:37.761Z,100.00
2023-02-17T07:51:09.773Z,100.00
2023-02-17T07:53:37.350Z,100.00
2023-02-17T07:56:10.519Z,100.00
2023-02-17T07:58:40.019Z,100.00
2023-02-17T08:01:22.706Z,100.00
2023-02-17T08:03:50.784Z,100.00
2023-02-17T08:06:21.120Z,100.00
2023-02-17T08:09:08.556Z,100.00
2023-02-17T08:11:54.813Z,100.00
2023-02-17T08:14:23.888Z,100.00
2023-02-17T08:16:50.834Z,100.00
2023-02-17T08:19:17.778Z,99.04
2023-02-17T08:21:45.077Z,98.89
2023-02-17T08:24:12.469Z,97.96
2023-02-17T08:26:39.696Z,97.93
2023-02-17T08:29:47.434Z,97.62
2023-02-17T08:32:16.601Z,97.16
2023-02-17T08:34:43.738Z,97.72
2023-02-17T08:37:11.635Z,97.53
2023-02-17T08:39:38.755Z,97.75
2023-02-17T08:42:06.191Z,97.48
2023-02-17T08:44:36.159Z,97.06
2023-02-17T08:47:05.226Z,98.16
2023-02-17T08:49:33.004Z,97.94
2023-02-17T08:52:00.523Z,97.43
2023-02-17T08:54:27.856Z,96.78
2023-02-17T08:56:54.670Z,95.87
2023-02-17T08:59:21.703Z,95.28
2023-02-17T09:01:48.703Z,94.52
2023-02-17T09:04:16.370Z,91.97
2023-02-17T09:06:50.280Z,90.59
2023-02-17T09:09:22.522Z,89.23
2023-02-17T09:11:49.747Z,87.33
2023-02-17T09:14:16.658Z,85.84
2023-02-17T09:16:43.509Z,83.80
2023-02-17T09:19:10.310Z,83.27
2023-02-17T09:21:37.180Z,81.95
2023-02-17T09:24:04.305Z,82.60
2023-02-17T09:26:31.068Z,82.66
2023-02-17T09:28:58.153Z,81.25
2023-02-17T09:31:27.145Z,81.50
2023-02-17T09:33:54.587Z,80.42
2023-02-17T09:36:27.522Z,80.33
2023-02-17T09:38:54.729Z,80.08
2023-02-17T09:41:41.867Z,79.49
2023-02-17T09:44:21.144Z,79.98
2023-02-17T09:47:03.718Z,79.20
2023-02-17T09:49:46.050Z,78.34
2023-02-17T09:52:14.118Z,77.32
2023-02-17T09:54:46.886Z,76.75
2023-02-17T09:57:20.833Z,76.29
2023-02-17T09:59:59.127Z,75.91
2023-02-17T10:02:41.449Z,75.47
2023-02-17T10:05:15.382Z,75.17
2023-02-17T10:07:51.266Z,75.28
2023-02-17T10:10:31.840Z,74.36
2023-02-17T10:13:02.981Z,73.71
2023-02-17T10:15:36.058Z,73.90
2023-02-17T10:18:13.689Z,73.88
2023-02-17T10:21:00.955Z,73.47
2023-02-17T10:23:30.025Z,73.00
2023-02-17T10:26:09.434Z,72.69
2023-02-17T10:28:47.442Z,72.54
2023-02-17T10:31:36.160Z,72.05
2023-02-17T10:34:06.088Z,72.59
2023-02-17T10:36:57.442Z,72.45
2023-02-17T10:39:52.378Z,71.76
2023-02-17T10:42:32.638Z,72.63
2023-02-17T10:45:05.564Z,73.34
2023-02-17T10:47:35.764Z,73.42
2023-02-17T10:50:05.818Z,72.52
2023-02-17T10:52:41.188Z,72.66
2023-02-17T10:55:41.552Z,72.21
2023-02-17T10:58:19.961Z,72.29
2023-02-17T11:00:50.263Z,71.70
2023-02-17T11:03:21.774Z,71.29
2023-02-17T11:05:58.468Z,72.36
2023-02-17T11:08:41.849Z,72.53
2023-02-17T11:11:20.203Z,71.78
2023-02-17T11:14:18.208Z,71.60
2023-02-17T11:16:49.302Z,71.59
2023-02-17T11:19:29.639Z,71.80
2023-02-17T11:21:59.339Z,72.57
2023-02-17T11:24:28.118Z,72.68
2023-02-17T11:27:10.346Z,72.80
2023-02-17T11:29:37.641Z,73.22
2023-02-17T11:32:09.168Z,73.22
2023-02-17T11:34:39.605Z,73.94
2023-02-17T11:37:09.340Z,73.92
2023-02-17T11:39:45.423Z,72.93
2023-02-17T11:42:33.331Z,73.31
2023-02-17T11:45:17.749Z,72.95
2023-02-17T11:48:19.117Z,72.50
2023-02-17T11:51:21.251Z,72.59
2023-02-17T11:54:31.568Z,70.90
2023-02-17T11:57:45.405Z,71.51
2023-02-17T12:00:24.319Z,69.34
2023-02-17T12:03:41.019Z,67.84
2023-02-17T12:06:15.273Z,67.20
2023-02-17T12:09:27.784Z,66.87
2023-02-17T12:12:34.756Z,67.39
2023-02-17T12:15:38.558Z,66.90
2023-02-17T12:18:11.302Z,67.87
2023-02-17T12:20:51.936Z,68.34
2023-02-17T12:23:34.032Z,69.09
2023-02-17T12:26:26.160Z,68.49
2023-02-17T12:29:24.345Z,68.14
2023-02-17T12:32:10.015Z,68.32
2023-02-17T12:34:55.258Z,68.17
2023-02-17T12:37:34.560Z,68.75
2023-02-17T12:40:23.534Z,68.46
2023-02-17T12:43:07.079Z,68.81
2023-02-17T12:45:41.837Z,69.25
2023-02-17T12:48:38.509Z,68.78
2023-02-17T12:51:26.545Z,68.95
2023-02-17T12:54:14.962Z,69.47
2023-02-17T12:57:06.356Z,69.70
2023-02-17T12:59:46.033Z,70.07
2023-02-17T13:02:16.592Z,70.42
2023-02-17T13:04:52.006Z,70.54
2023-02-17T13:07:49.877Z,71.58
2023-02-17T13:10:37.785Z,71.74
2023-02-17T13:13:30.309Z,71.25
2023-02-17T13:16:12.298Z,72.15
2023-02-17T13:18:44.297Z,72.55
2023-02-17T13:21:24.908Z,72.33
2023-02-17T13:24:13.244Z,72.32
2023-02-17T13:26:44.796Z,72.78
2023-02-17T13:29:33.895Z,73.48
2023-02-17T13:32:06.084Z,73.27
2023-02-17T13:34:45.099Z,73.21
2023-02-17T13:37:33.772Z,73.12
2023-02-17T13:40:03.960Z,73.02
2023-02-17T13:42:44.430Z,73.39
2023-02-17T13:45:34.509Z,72.70
2023-02-17T13:48:33.040Z,73.35
2023-02-17T13:51:09.964Z,72.59
2023-02-17T13:53:41.326Z,72.67
2023-02-17T13:56:30.168Z,72.54
2023-02-17T13:59:19.345Z,72.40
2023-02-17T14:01:47.625Z,71.74
2023-02-17T14:04:28.455Z,71.54
2023-02-17T14:06:59.541Z,71.94
2023-02-17T14:09:30.889Z,73.10
2023-02-17T14:12:02.096Z,73.40
2023-02-17T14:14:32.876Z,72.49
2023-02-17T14:17:27.724Z,72.76
2023-02-17T14:19:54.541Z,72.58
2023-02-17T14:22:28.815Z,72.37
2023-02-17T14:25:27.211Z,73.00
2023-02-17T14:27:54.049Z,73.52
2023-02-17T14:30:38.451Z,73.14
2023-02-17T14:33:17.879Z,72.73
2023-02-17T14:35:54.819Z,72.84
2023-02-17T14:38:35.353Z,72.63
2023-02-17T14:41:06.846Z,72.72
2023-02-17T14:43:33.769Z,73.22
2023-02-17T14:46:00.653Z,72.78
2023-02-17T14:48:28.301Z,72.61
2023-02-17T14:50:57.606Z,72.61
2023-02-17T14:53:32.873Z,72.55
2023-02-17T14:56:04.633Z,72.67
2023-02-17T14:58:31.807Z,72.71
2023-02-17T15:00:59.519Z,72.72
2023-02-17T15:03:26.703Z,72.68
2023-02-17T15:05:54.213Z,72.81
2023-02-17T15:08:27.470Z,72.57
2023-02-17T15:10:55.325Z,72.75
2023-02-17T15:13:22.345Z,72.60
2023-02-17T15:15:49.826Z,73.02
2023-02-17T15:18:19.289Z,73.29
2023-02-17T15:20:50.472Z,74.03
2023-02-17T15:23:21.483Z,73.97
2023-02-17T15:25:48.861Z,73.84
2023-02-17T15:28:19.467Z,74.24
2023-02-17T15:30:51.913Z,74.41
2023-02-17T15:33:20.825Z,74.34
2023-02-17T15:35:53.657Z,74.24
2023-02-17T15:38:21.145Z,74.39
2023-02-17T15:40:47.935Z,74.33
2023-02-17T15:43:21.915Z,75.08
2023-02-17T15:45:49.354Z,75.35
2023-02-17T15:48:30.244Z,75.25
2023-02-17T15:50:57.037Z,75.30
2023-02-17T15:53:23.868Z,75.68
2023-02-17T15:55:52.428Z,75.60
2023-02-17T15:58:22.012Z,75.84
2023-02-17T16:00:50.484Z,76.34
2023-02-17T16:03:18.120Z,76.35
2023-02-17T16:05:45.044Z,76.17
2023-02-17T16:08:12.076Z,76.68
2023-02-17T16:10:42.218Z,76.82
2023-02-17T16:13:14.752Z,76.54
2023-02-17T16:15:42.515Z,77.37
2023-02-17T16:18:21.708Z,76.87
2023-02-17T16:20:50.376Z,76.83
2023-02-17T16:23:17.701Z,76.97
2023-02-17T16:25:46.460Z,77.04
2023-02-17T16:28:20.544Z,76.50
2023-02-17T16:30:49.577Z,77.12
2023-02-17T16:33:17.603Z,76.91
2023-02-17T16:35:44.979Z,77.58
2023-02-17T16:38:22.657Z,77.59
2023-02-17T16:40:52.380Z,77.74
2023-02-17T16:43:23.841Z,77.97
2023-02-17T16:45:58.442Z,78.01
2023-02-17T16:48:29.305Z,78.58
2023-02-17T16:50:56.629Z,79.03
2023-02-17T16:53:23.608Z,79.31
2023-02-17T16:55:53.276Z,79.70
2023-02-17T16:58:27.724Z,79.45
2023-02-17T17:00:56.237Z,79.31
2023-02-17T17:03:23.377Z,79.41
2023-02-17T17:05:52.378Z,79.46
2023-02-17T17:08:21.573Z,80.37
2023-02-17T17:10:49.528Z,80.14
2023-02-17T17:13:16.498Z,80.47
2023-02-17T17:15:45.350Z,80.62
2023-02-17T17:18:21.508Z,81.00
2023-02-17T17:20:49.001Z,80.61
2023-02-17T17:23:16.816Z,80.66
2023-02-17T17:25:47.012Z,81.15
2023-02-17T17:28:17.397Z,81.31
2023-02-17T17:30:44.704Z,82.51
2023-02-17T17:33:11.603Z,83.78
2023-02-17T17:35:38.497Z,84.61
2023-02-17T17:38:06.034Z,84.81
2023-02-17T17:40:48.555Z,85.57
2023-02-17T17:43:17.465Z,85.41
2023-02-17T17:45:44.319Z,85.48
2023-02-17T17:48:15.731Z,85.83
2023-02-17T17:50:43.479Z,86.36
2023-02-17T17:53:10.597Z,86.27
2023-02-17T17:55:37.663Z,86.48
2023-02-17T17:58:04.506Z,85.79
2023-02-17T18:00:31.640Z,86.53
2023-02-17T18:02:58.373Z,86.38
2023-02-17T18:05:25.390Z,86.50
2023-02-17T18:07:52.395Z,86.61
2023-02-17T18:10:19.362Z,86.43
2023-02-17T18:12:47.601Z,87.18
2023-02-17T18:15:15.970Z,86.39
2023-02-17T18:17:44.510Z,87.54
2023-02-17T18:20:12.581Z,88.34
2023-02-17T18:22:40.162Z,88.61
2023-02-17T18:25:08.324Z,88.70
2023-02-17T18:27:44.600Z,88.53
2023-02-17T18:30:20.366Z,87.72
2023-02-17T18:32:48.121Z,88.74
2023-02-17T18:35:15.849Z,89.09
2023-02-17T18:37:43.415Z,88.38
2023-02-17T18:40:15.130Z,87.10
2023-02-17T18:42:45.531Z,86.04
2023-02-17T18:45:13.121Z,88.15
2023-02-17T18:47:39.912Z,87.98
2023-02-17T18:50:08.546Z,87.41
2023-02-17T18:52:38.489Z,90.28
2023-02-17T18:55:06.395Z,88.77
2023-02-17T18:57:34.210Z,89.81
2023-02-17T19:00:00.972Z,89.42
2023-02-17T19:02:27.858Z,89.07
2023-02-17T19:04:55.314Z,90.25
2023-02-17T19:07:23.220Z,89.92
2023-02-17T19:09:51.763Z,90.03
2023-02-17T19:12:19.009Z,90.44
2023-02-17T19:14:46.116Z,89.75
2023-02-17T19:17:12.992Z,90.65
2023-02-17T19:19:41.038Z,90.77
2023-02-17T19:22:08.893Z,89.93
2023-02-17T19:24:36.872Z,89.83
2023-02-17T19:27:04.265Z,90.10
2023-02-17T19:29:31.293Z,91.58
2023-02-17T19:31:59.601Z,91.03
2023-02-17T19:34:27.598Z,91.76
2023-02-17T19:36:55.360Z,92.70
2023-02-17T19:39:22.134Z,92.59
2023-02-17T19:41:49.052Z,92.89
2023-02-17T19:44:15.816Z,93.05
2023-02-17T19:46:42.586Z,95.09
2023-02-17T19:49:09.364Z,95.77
2023-02-17T19:51:36.082Z,96.61
2023-02-17T19:54:02.912Z,96.13
2023-02-17T19:56:33.006Z,96.08
2023-02-17T19:59:00.244Z,95.98
2023-02-17T20:01:30.543Z,95.55
2023-02-17T20:03:59.092Z,95.63
2023-02-17T20:06:33.622Z,96.09
2023-02-17T20:09:07.742Z,96.26
2023-02-17T20:11:34.636Z,96.19
2023-02-17T20:14:02.588Z,96.16
2023-02-17T20:16:29.878Z,96.37
2023-02-17T20:18:56.849Z,96.96
2023-02-17T20:21:28.223Z,97.16
2023-02-17T20:23:55.385Z,97.39
2023-02-17T20:26:26.393Z,100.00
2023-02-17T20:28:53.330Z,99.16
2023-02-17T20:31:20.669Z,99.25
2023-02-17T20:33:48.315Z,98.45
2023-02-17T20:36:15.408Z,98.76
2023-02-17T20:38:42.374Z,98.58
2023-02-17T20:41:14.198Z,97.49
2023-02-17T20:43:41.321Z,97.32
2023-02-17T20:46:14.223Z,98.09
2023-02-17T20:48:40.900Z,98.83
2023-02-17T20:51:07.712Z,98.56
2023-02-17T20:53:34.443Z,97.94
2023-02-17T20:56:01.326Z,98.87
2023-02-17T20:58:28.206Z,97.57
2023-02-17T21:00:55.018Z,96.99
2023-02-17T21:03:21.959Z,97.19
2023-02-17T21:05:49.213Z,99.81
2023-02-17T21:08:15.940Z,99.41
2023-02-17T21:10:42.730Z,100.00
2023-02-17T21:13:09.506Z,100.00
2023-02-17T21:15:36.331Z,99.62
2023-02-17T21:18:03.176Z,99.14
2023-02-17T21:20:29.958Z,99.09
2023-02-17T21:22:56.703Z,99.39
2023-02-17T21:25:23.738Z,98.89
2023-02-17T21:27:50.484Z,98.71
2023-02-17T21:30:17.300Z,99.51
2023-02-17T21:32:44.190Z,100.00
2023-02-17T21:35:11.447Z,100.00
2023-02-17T21:37:39.103Z,100.00
2023-02-17T21:40:07.978Z,100.00
2023-02-17T21:42:56.340Z,99.69
2023-02-17T21:45:24.124Z,99.05
2023-02-17T21:47:51.527Z,99.48
2023-02-17T21:50:19.553Z,99.26
2023-02-17T21:52:46.389Z,99.12
2023-02-17T21:55:13.330Z,99.42
2023-02-17T21:57:40.065Z,98.96
2023-02-17T22:00:08.936Z,98.14
2023-02-17T22:02:36.642Z,98.67
2023-02-17T22:05:04.196Z,98.60
2023-02-17T22:07:30.938Z,97.30
2023-02-17T22:09:59.474Z,97.31
2023-02-17T22:12:26.358Z,97.70
2023-02-17T22:14:53.082Z,96.91
2023-02-17T22:17:19.997Z,97.05
2023-02-17T22:19:46.744Z,96.98
2023-02-17T22:22:13.542Z,97.14
2023-02-17T22:24:40.249Z,97.41
2023-02-17T22:27:07.048Z,97.50
2023-02-17T22:29:33.811Z,97.77
2023-02-17T22:32:00.790Z,98.09
2023-02-17T22:34:28.848Z,97.54
2023-02-17T22:36:55.641Z,97.06
2023-02-17T22:39:22.459Z,97.24
2023-02-17T22:41:49.294Z,99.08
2023-02-17T22:44:16.066Z,98.55
2023-02-17T22:46:42.853Z,98.04
2023-02-17T22:49:09.687Z,97.18
2023-02-17T22:51:39.374Z,97.36
2023-02-17T22:54:07.569Z,97.59
2023-02-17T22:56:34.548Z,97.16
2023-02-17T22:59:03.921Z,96.43
2023-02-17T23:01:33.984Z,95.90
2023-02-17T23:04:01.517Z,96.66
2023-02-17T23:06:35.796Z,96.54
2023-02-17T23:09:04.211Z,97.12
2023-02-17T23:11:49.952Z,97.22
2023-02-17T23:14:38.595Z,96.83
2023-02-17T23:17:12.629Z,96.77
2023-02-17T23:19:41.554Z,97.19
2023-02-17T23:22:14.640Z,96.85
2023-02-17T23:24:42.788Z,96.73
2023-02-17T23:27:09.793Z,97.07
2023-02-17T23:29:38.149Z,97.54
2023-02-17T23:32:05.171Z,97.35
2023-02-17T23:34:32.541Z,97.85
2023-02-17T23:36:59.808Z,98.39
2023-02-17T23:39:27.187Z,99.47
2023-02-17T23:41:53.949Z,100.00
2023-02-17T23:44:20.722Z,100.00
2023-02-17T23:46:47.888Z,99.48
2023-02-17T23:49:17.145Z,99.24
2023-02-17T23:51:45.257Z,98.74
2023-02-17T23:54:12.268Z,99.70
2023-02-17T23:56:39.401Z,100.00
2023-02-17T23:59:06.547Z,100.00
